Time;durP1;ratioP1;P1;durP2;ratioP2;P2;SDS_P1;SDS_P2;PMS_P1;PMS_P2;Temp;Humidity;BMP_temperature;BMP_pressure;BME280_temperature;BME280_humidity;BME280_pressure;Samples;Min_cycle;Max_cycle;Signal;HPM_P1;HPM_P2
2022/09/02 00:02:00;;;;;;;13.43;11.70;;;;;;;15.49;100.00;101519.03;5206762;28;20032;-81
2022/09/02 00:04:31;;;;;;;15.63;12.13;;;;;;;15.45;100.00;101521.47;5205991;28;20499;-81
2022/09/02 00:07:02;;;;;;;20.13;14.15;;;;;;;15.34;100.00;101508.94;5207207;28;20026;-81
2022/09/02 00:09:32;;;;;;;14.43;13.23;;;;;;;15.37;100.00;101513.84;5206619;28;20356;-85
2022/09/02 00:12:04;;;;;;;14.05;12.55;;;;;;;15.34;100.00;101522.53;5205804;28;20056;-82
2022/09/02 00:14:37;;;;;;;16.65;15.10;;;;;;;15.28;100.00;101503.78;5204264;28;20031;-81
2022/09/02 00:17:08;;;;;;;28.02;14.27;;;;;;;15.20;100.00;101505.13;5206593;28;20083;-81
2022/09/02 00:19:38;;;;;;;21.15;11.13;;;;;;;15.18;100.00;101520.91;5206442;28;20403;-81
2022/09/02 00:22:08;;;;;;;21.88;12.52;;;;;;;15.11;100.00;101517.63;5225421;28;20025;-85
2022/09/02 00:24:39;;;;;;;19.30;12.90;;;;;;;15.07;100.00;101516.53;5226134;28;20141;-82
2022/09/02 00:27:09;;;;;;;24.50;14.27;;;;;;;15.02;100.00;101516.53;5226841;28;20036;-82
2022/09/02 00:29:40;;;;;;;14.45;13.10;;;;;;;14.98;100.00;101499.13;5226373;28;20048;-81
2022/09/02 00:32:10;;;;;;;18.15;13.43;;;;;;;14.86;100.00;101496.66;5226776;28;20021;-81
2022/09/02 00:34:40;;;;;;;23.45;14.02;;;;;;;14.81;100.00;101496.63;5224798;28;20024;-82
2022/09/02 00:37:12;;;;;;;16.63;14.65;;;;;;;14.96;100.00;101512.19;5227071;28;20260;-82
2022/09/02 00:39:42;;;;;;;18.50;13.52;;;;;;;14.93;100.00;101510.00;5225799;28;20537;-81
2022/09/02 00:42:12;;;;;;;15.43;11.80;;;;;;;14.83;100.00;101486.31;5227086;28;20163;-82
2022/09/02 00:44:43;;;;;;;14.77;12.60;;;;;;;14.84;100.00;101499.63;5229018;28;20029;-79
2022/09/02 00:47:14;;;;;;;11.38;10.30;;;;;;;14.96;100.00;101506.75;5231362;28;20573;-81
2022/09/02 00:49:49;;;;;;;12.60;10.93;;;;;;;15.01;100.00;101504.03;5233234;28;20021;-83
2022/09/02 00:52:25;;;;;;;18.90;13.27;;;;;;;15.01;100.00;101498.59;5227031;28;20025;-79
2022/09/02 00:55:00;;;;;;;11.82;10.85;;;;;;;14.79;100.00;101458.03;5212325;28;20045;-80
2022/09/02 00:57:39;;;;;;;13.45;10.48;;;;;;;14.91;100.00;101471.38;5212249;28;20052;-79
2022/09/02 01:00:12;;;;;;;13.18;11.85;;;;;;;15.11;100.00;101498.59;5213140;28;20025;-83
2022/09/02 01:02:49;;;;;;;11.27;8.75;;;;;;;15.12;100.00;101495.59;5213585;28;20092;-79
2022/09/02 01:05:22;;;;;;;8.75;7.90;;;;;;;15.11;100.00;101480.38;5212351;28;20041;-83
2022/09/02 01:07:53;;;;;;;8.05;7.45;;;;;;;15.24;100.00;101489.91;5213781;28;20525;-79
2022/09/02 01:10:33;;;;;;;13.52;8.68;;;;;;;15.27;100.00;101489.38;5212685;28;20033;-81
2022/09/02 01:13:07;;;;;;;11.23;7.07;;;;;;;15.23;100.00;101480.09;5213771;28;20244;-79
2022/09/02 01:15:49;;;;;;;13.10;8.30;;;;;;;15.31;100.00;101492.34;5214895;28;20026;-83
2022/09/02 01:18:24;;;;;;;8.48;7.40;;;;;;;15.26;100.00;101479.56;5213744;28;20470;-77
2022/09/02 01:20:55;;;;;;;7.80;7.10;;;;;;;15.20;100.00;101480.66;5197462;28;20089;-81
2022/09/02 01:23:28;;;;;;;8.75;7.95;;;;;;;15.14;100.00;101473.56;5197476;28;20021;-81
2022/09/02 01:25:58;;;;;;;16.20;7.72;;;;;;;15.21;100.00;101490.44;5212190;28;20109;-79
2022/09/02 01:28:32;;;;;;;8.75;8.05;;;;;;;15.20;100.00;101491.53;5212738;28;20044;-78
2022/09/02 01:31:02;;;;;;;9.07;7.90;;;;;;;14.72;100.00;101422.97;5221570;28;20021;-79
2022/09/02 01:33:33;;;;;;;9.15;8.00;;;;;;;15.05;100.00;101480.63;5233495;28;20479;-81
2022/09/02 01:36:04;;;;;;;10.77;7.55;;;;;;;14.86;100.00;101464.84;5233828;28;20090;-81
2022/09/02 01:38:34;;;;;;;10.95;8.52;;;;;;;14.85;100.00;101471.38;5229335;28;20103;-79
2022/09/02 01:41:05;;;;;;;11.40;8.48;;;;;;;14.82;100.00;101485.50;5228754;28;20221;-80
2022/09/02 01:43:35;;;;;;;11.10;10.20;;;;;;;14.79;100.00;101483.31;5228350;28;20478;-79
2022/09/02 01:46:05;;;;;;;12.57;8.73;;;;;;;14.65;100.00;101468.63;5229544;28;20036;-80
2022/09/02 01:48:36;;;;;;;12.07;10.27;;;;;;;14.46;100.00;101453.88;5227773;28;20384;-80
2022/09/02 01:51:16;;;;;;;10.50;8.48;;;;;;;14.37;100.00;101448.13;5211326;28;20078;-79
2022/09/02 01:53:47;;;;;;;13.32;10.45;;;;;;;14.53;100.00;101478.91;5210099;28;20103;-81
2022/09/02 01:56:17;;;;;;;11.50;9.13;;;;;;;14.51;100.00;101478.34;5228762;28;20509;-80
2022/09/02 01:58:48;;;;;;;12.13;10.90;;;;;;;14.47;100.00;101474.53;5210685;28;20017;-79
2022/09/02 02:01:18;;;;;;;10.52;9.00;;;;;;;14.45;100.00;101480.22;5227770;28;20437;-82
2022/09/02 02:03:49;;;;;;;10.23;9.18;;;;;;;14.42;100.00;101474.53;5228074;28;20080;-79
2022/09/02 02:06:19;;;;;;;10.48;9.55;;;;;;;14.44;100.00;101480.47;5228353;28;20031;-79
2022/09/02 02:08:51;;;;;;;11.23;9.93;;;;;;;14.42;100.00;101483.50;5210433;28;20388;-79
2022/09/02 02:11:23;;;;;;;10.77;9.75;;;;;;;14.37;100.00;101480.72;5228351;28;20052;-79
2022/09/02 02:13:54;;;;;;;11.32;8.80;;;;;;;14.33;100.00;101476.09;5227852;28;20108;-80
2022/09/02 02:16:24;;;;;;;10.43;9.43;;;;;;;14.34;100.00;101472.28;5228585;28;20025;-80
2022/09/02 02:18:55;;;;;;;7.72;6.82;;;;;;;14.38;100.00;101473.38;5210648;28;20028;-79
2022/09/02 02:21:25;;;;;;;16.55;9.07;;;;;;;14.39;100.00;101477.75;5209817;28;20025;-83
2022/09/02 02:23:56;;;;;;;8.95;8.13;;;;;;;14.02;100.00;101405.34;5228287;28;20033;-80
2022/09/02 02:26:28;;;;;;;7.93;7.13;;;;;;;14.40;100.00;101468.50;5228008;28;20416;-79
2022/09/02 02:28:58;;;;;;;14.90;8.77;;;;;;;14.40;100.00;101466.59;5227694;28;20031;-81
2022/09/02 02:31:28;;;;;;;6.50;5.95;;;;;;;14.37;100.00;101460.88;5228903;28;20386;-81
2022/09/02 02:33:59;;;;;;;8.02;7.50;;;;;;;14.10;100.00;101412.16;5228316;28;20089;-81
2022/09/02 02:36:30;;;;;;;7.90;6.88;;;;;;;14.37;100.00;101456.28;5228376;28;20403;-79
2022/09/02 02:39:00;;;;;;;7.78;7.00;;;;;;;14.26;100.00;101438.28;5229242;28;20048;-84
2022/09/02 02:41:32;;;;;;;7.57;7.10;;;;;;;14.44;100.00;101464.19;5211136;28;20218;-82
2022/09/02 02:44:02;;;;;;;6.05;5.40;;;;;;;14.44;100.00;101451.41;5228775;28;20143;-81
2022/09/02 02:46:34;;;;;;;6.22;5.70;;;;;;;14.24;100.00;101417.91;5229155;28;20025;-82
2022/09/02 02:49:54;;;;;;;6.03;5.43;;;;;;;14.53;100.00;101457.16;5229262;28;20033;-79
2022/09/02 02:52:25;;;;;;;7.72;6.88;;;;;;;14.49;100.00;101461.47;5228984;28;20069;-81
2022/09/02 02:54:56;;;;;;;12.43;5.30;;;;;;;14.30;100.00;101428.53;5227905;28;20028;-80
2022/09/02 02:57:26;;;;;;;5.63;5.20;;;;;;;14.43;100.00;101446.28;5227419;28;20374;-79
2022/09/02 02:59:57;;;;;;;6.35;5.75;;;;;;;14.42;100.00;101442.75;5209347;28;20090;-79
2022/09/02 03:02:30;;;;;;;8.00;4.80;;;;;;;14.52;100.00;101455.50;5226931;28;20041;-79
2022/09/02 03:05:03;;;;;;;5.82;5.20;;;;;;;14.41;100.00;101430.22;5225889;28;20036;-81
2022/09/02 03:07:33;;;;;;;6.90;6.32;;;;;;;14.49;100.00;101453.31;5227030;28;20086;-79
2022/09/02 03:10:07;;;;;;;5.57;5.18;;;;;;;14.40;100.00;101439.44;5226275;28;20390;-79
2022/09/02 03:12:38;;;;;;;6.40;6.00;;;;;;;14.40;100.00;101450.31;5208211;28;20024;-79
2022/09/02 03:15:10;;;;;;;6.97;6.40;;;;;;;14.36;100.00;101443.75;5225263;28;20025;-82
2022/09/02 03:17:45;;;;;;;6.60;5.60;;;;;;;14.20;100.00;101423.88;5226626;28;20483;-79
2022/09/02 03:20:17;;;;;;;6.32;5.78;;;;;;;14.36;100.00;101451.09;5227026;28;20470;-79
2022/09/02 03:22:49;;;;;;;7.43;6.32;;;;;;;14.38;100.00;101452.47;5226095;28;20508;-78
2022/09/02 03:25:21;;;;;;;5.50;5.10;;;;;;;14.42;100.00;101453.59;5225222;28;20165;-79
2022/09/02 03:27:52;;;;;;;6.82;5.65;;;;;;;14.45;100.00;101438.63;5208046;28;20430;-81
2022/09/02 03:30:25;;;;;;;4.38;4.05;;;;;;;14.48;100.00;101441.63;5226223;28;20032;-79
2022/09/02 03:32:58;;;;;;;10.10;5.32;;;;;;;14.60;100.00;101444.13;5209082;28;20025;-80
2022/09/02 03:35:29;;;;;;;7.60;5.07;;;;;;;14.53;100.00;101419.09;5227454;28;20471;-80
2022/09/02 03:38:00;;;;;;;11.77;5.05;;;;;;;14.79;100.00;101439.81;5229687;28;20035;-83
2022/09/02 03:40:30;;;;;;;4.97;4.53;;;;;;;14.88;100.00;101442.81;5213325;28;20458;-78
2022/09/02 03:43:01;;;;;;;7.00;4.15;;;;;;;14.70;100.00;101399.84;5225866;28;20024;-78
2022/09/02 03:45:32;;;;;;;3.95;3.75;;;;;;;15.09;100.00;101440.91;5225017;28;20036;-83
2022/09/02 03:48:03;;;;;;;6.82;4.45;;;;;;;14.92;100.00;101402.31;5225573;28;20033;-78
2022/09/02 03:50:38;;;;;;;4.20;3.90;;;;;;;15.18;100.00;101440.09;5225474;28;20029;-78
2022/09/02 03:53:09;;;;;;;4.68;4.05;;;;;;;15.09;100.00;101408.28;5225666;28;20031;-78
2022/09/02 03:55:40;;;;;;;4.63;4.32;;;;;;;15.25;100.00;101431.69;5224648;28;20387;-78
2022/09/02 03:58:11;;;;;;;10.27;5.20;;;;;;;15.15;100.00;101418.88;5225526;28;20052;-78
2022/09/02 04:00:42;;;;;;;4.50;4.20;;;;;;;15.24;100.00;101432.78;5225020;28;20368;-78
2022/09/02 04:03:12;;;;;;;4.82;4.05;;;;;;;15.13;100.00;101412.09;5224685;28;20524;-79
2022/09/02 04:05:49;;;;;;;4.15;3.55;;;;;;;15.01;100.00;101400.69;5224924;28;20025;-79
2022/09/02 04:08:20;;;;;;;5.28;4.82;;;;;;;15.06;100.00;101415.06;5225662;28;20053;-80
2022/09/02 04:10:51;;;;;;;5.22;4.18;;;;;;;15.22;100.00;101429.50;5225235;28;20036;-78
2022/09/02 04:13:22;;;;;;;5.47;4.28;;;;;;;15.23;100.00;101427.59;5225250;28;20039;-85
2022/09/02 04:15:52;;;;;;;4.05;3.80;;;;;;;15.24;100.00;101423.78;5226900;28;20386;-80
2022/09/02 04:18:22;;;;;;;3.25;3.00;;;;;;;15.24;100.00;101423.78;5226908;28;20084;-82
2022/09/02 04:20:53;;;;;;;5.32;4.93;;;;;;;15.08;100.00;101402.00;5227219;28;20025;-81
2022/09/02 04:23:23;;;;;;;7.53;3.80;;;;;;;15.19;100.00;101411.00;5226259;28;20132;-82
2022/09/02 04:25:54;;;;;;;3.70;3.47;;;;;;;15.24;100.00;101410.19;5230881;28;20021;-81
2022/09/02 04:28:24;;;;;;;5.53;5.13;;;;;;;15.31;100.00;101413.41;5211911;28;20536;-83
2022/09/02 04:30:55;;;;;;;4.70;4.38;;;;;;;15.31;100.00;101416.13;5229653;28;20025;-79
2022/09/02 04:33:36;;;;;;;4.05;3.85;;;;;;;15.35;100.00;101414.50;5229007;28;20567;-79
2022/09/02 04:36:09;;;;;;;4.25;3.95;;;;;;;15.36;100.00;101419.69;5213708;28;20479;-78
2022/09/02 04:38:40;;;;;;;3.75;3.55;;;;;;;15.36;100.00;101419.69;5208808;28;20033;-78
2022/09/02 04:41:15;;;;;;;3.63;3.33;;;;;;;15.25;100.00;101399.03;5209456;28;20095;-79
2022/09/02 04:43:48;;;;;;;3.45;3.25;;;;;;;15.39;100.00;101426.47;5211681;28;20029;-79
2022/09/02 04:46:19;;;;;;;4.47;4.03;;;;;;;15.30;100.00;101393.59;5213344;28;20029;-78
2022/09/02 04:48:50;;;;;;;2.97;2.88;;;;;;;15.40;100.00;101414.50;5228918;28;20679;-78
2022/09/02 04:51:23;;;;;;;4.80;3.65;;;;;;;15.41;100.00;101416.13;5232141;28;20021;-80
2022/09/02 04:53:54;;;;;;;3.20;3.00;;;;;;;15.26;100.00;101391.69;5227074;28;20071;-79
2022/09/02 04:56:27;;;;;;;4.60;4.30;;;;;;;15.43;100.00;101413.97;5237723;28;20409;-79
2022/09/02 04:58:58;;;;;;;4.32;3.63;;;;;;;15.48;100.00;101417.50;5229797;28;20032;-80
2022/09/02 05:01:32;;;;;;;3.28;3.10;;;;;;;15.51;100.00;101416.94;5232792;28;20020;-79
2022/09/02 05:04:08;;;;;;;4.18;3.90;;;;;;;15.53;100.00;101416.66;5200043;28;21069;-79
2022/09/02 05:06:38;;;;;;;10.45;3.67;;;;;;;15.56;100.00;101418.88;5227818;28;20060;-79
2022/09/02 05:09:09;;;;;;;4.93;3.90;;;;;;;15.58;100.00;101418.59;5233415;28;20084;-77
2022/09/02 05:11:39;;;;;;;16.80;4.63;;;;;;;15.58;100.00;101419.41;5231948;28;20025;-80
2022/09/02 05:14:11;;;;;;;5.70;4.13;;;;;;;15.58;100.00;101421.31;5232694;28;20025;-81
2022/09/02 05:16:44;;;;;;;18.98;4.88;;;;;;;15.46;100.00;101403.34;5233849;28;20146;-80
2022/09/02 05:19:14;;;;;;;4.88;4.55;;;;;;;15.57;100.00;101416.97;5254633;22;20044;-65
2022/09/02 05:21:45;;;;;;;5.50;5.00;;;;;;;15.58;100.00;101421.31;5241224;28;20507;-61
2022/09/02 05:24:16;;;;;;;7.95;4.68;;;;;;;15.58;100.00;101422.13;5247474;28;20074;-64
2022/09/02 05:26:48;;;;;;;4.28;3.97;;;;;;;15.60;100.00;101419.94;5247896;28;20024;-63
2022/09/02 05:29:19;;;;;;;4.50;4.20;;;;;;;15.64;100.00;101420.19;5244435;28;20028;-63
2022/09/02 05:31:50;;;;;;;4.88;4.40;;;;;;;15.52;100.00;101398.72;5248154;28;20024;-64
2022/09/02 05:34:21;;;;;;;6.38;5.07;;;;;;;15.57;100.00;101403.38;5247480;28;20476;-63
2022/09/02 05:36:51;;;;;;;4.88;4.15;;;;;;;15.69;100.00;101422.91;5217103;28;20072;-63
2022/09/02 05:39:22;;;;;;;4.20;4.00;;;;;;;15.67;100.00;101411.47;5206260;28;20370;-63
2022/09/02 05:41:52;;;;;;;9.80;4.22;;;;;;;15.72;100.00;101417.72;5206636;28;20021;-64
2022/09/02 05:44:23;;;;;;;12.45;4.90;;;;;;;15.73;100.00;101424.81;5204935;28;20032;-64
2022/09/02 05:46:54;;;;;;;5.78;4.75;;;;;;;15.68;100.00;101410.38;5206654;28;20478;-63
2022/09/02 05:49:25;;;;;;;7.00;4.80;;;;;;;15.64;100.00;101409.31;5206182;28;20033;-64
2022/09/02 05:51:58;;;;;;;7.07;4.13;;;;;;;15.70;100.00;101427.28;5205865;28;20075;-63
2022/09/02 05:54:32;;;;;;;4.90;4.43;;;;;;;15.66;100.00;101412.56;5204314;28;20292;-62
2022/09/02 05:57:10;;;;;;;10.38;4.07;;;;;;;15.54;100.00;101393.81;5205104;28;20490;-62
2022/09/02 05:59:41;;;;;;;3.97;3.67;;;;;;;15.69;100.00;101420.19;5206161;28;20025;-61
2022/09/02 06:02:13;;;;;;;6.65;5.28;;;;;;;15.70;100.00;101416.38;5204550;28;20600;-65
2022/09/02 06:04:48;;;;;;;5.43;3.30;;;;;;;15.73;100.00;101418.56;5204275;28;20022;-62
2022/09/02 06:07:21;;;;;;;8.85;4.53;;;;;;;15.77;100.00;101416.91;5205779;28;20057;-63
2022/09/02 06:09:52;;;;;;;5.10;4.75;;;;;;;15.83;100.00;101413.09;5204227;28;20113;-62
2022/09/02 06:12:23;;;;;;;5.88;5.07;;;;;;;15.86;100.00;101412.53;5205704;28;20504;-61
2022/09/02 06:14:53;;;;;;;4.43;4.13;;;;;;;15.94;100.00;101419.28;5204230;28;20021;-62
2022/09/02 06:17:23;;;;;;;5.68;5.00;;;;;;;15.98;100.00;101418.47;5205638;28;20021;-59
2022/09/02 06:19:54;;;;;;;4.35;3.85;;;;;;;16.06;100.00;101417.06;5205839;28;20037;-61
2022/09/02 06:22:24;;;;;;;5.65;5.25;;;;;;;16.12;100.00;101411.34;5205610;28;20060;-61
2022/09/02 06:24:55;;;;;;;5.60;5.10;;;;;;;16.20;100.00;101416.19;5205277;28;20029;-62
2022/09/02 06:27:25;;;;;;;5.28;4.88;;;;;;;16.29;100.00;101412.88;5205532;28;20029;-61
2022/09/02 06:29:55;;;;;;;4.05;3.75;;;;;;;16.39;100.00;101413.66;5205312;28;20033;-61
2022/09/02 06:32:26;;;;;;;4.78;4.32;;;;;;;16.52;100.00;101414.91;5205663;28;20025;-61
2022/09/02 06:34:56;;;;;;;9.25;4.10;;;;;;;16.65;100.00;101411.59;5204793;28;20071;-62
2022/09/02 06:37:27;;;;;;;4.93;4.63;;;;;;;16.79;100.00;101398.13;5204896;28;20033;-61
2022/09/02 06:39:58;;;;;;;5.32;4.97;;;;;;;16.94;100.00;101405.41;5203924;28;20021;-62
2022/09/02 06:42:28;;;;;;;4.40;4.10;;;;;;;17.12;100.00;101397.31;5205258;28;20044;-62
2022/09/02 06:44:58;;;;;;;6.03;3.67;;;;;;;17.31;100.00;101405.63;5202992;28;20060;-62
2022/09/02 06:47:30;;;;;;;9.88;4.95;;;;;;;17.54;100.00;101407.56;5204464;28;20497;-62
2022/09/02 06:50:01;;;;;;;5.30;4.82;;;;;;;17.74;100.00;101400.25;5204695;28;20037;-62
2022/09/02 06:52:32;;;;;;;4.18;3.97;;;;;;;17.84;100.00;101394.69;5205100;28;20052;-61
2022/09/02 06:55:03;;;;;;;4.95;3.38;;;;;;;17.99;100.00;101383.56;5204292;28;20026;-62
2022/09/02 06:57:34;;;;;;;4.55;4.25;;;;;;;18.23;100.00;101397.19;5204910;28;20052;-61
2022/09/02 07:00:09;;;;;;;16.50;4.38;;;;;;;18.42;100.00;101399.94;5204813;28;20113;-62
2022/09/02 07:02:39;;;;;;;2.97;2.78;;;;;;;18.64;100.00;101396.66;5204445;28;20030;-61
2022/09/02 07:05:10;;;;;;;4.85;4.45;;;;;;;18.77;100.00;101393.94;5203986;28;20021;-60
2022/09/02 07:07:44;;;;;;;10.60;4.45;;;;;;;18.92;100.00;101392.09;5204311;28;20029;-61
2022/09/02 07:10:15;;;;;;;3.45;3.20;;;;;;;19.03;100.00;101393.56;5203036;28;20120;-61
2022/09/02 07:12:45;;;;;;;3.70;3.50;;;;;;;19.07;100.00;101387.16;5204805;28;20380;-63
2022/09/02 07:15:16;;;;;;;4.00;3.13;;;;;;;19.09;100.00;101389.59;5203901;28;20481;-62
2022/09/02 07:17:48;;;;;;;3.70;3.40;;;;;;;18.98;100.00;101393.63;5204194;28;20484;-62
2022/09/02 07:20:18;;;;;;;3.67;3.40;;;;;;;18.91;100.00;101380.34;5202650;28;20124;-59
2022/09/02 07:22:49;;;;;;;9.75;3.90;;;;;;;18.82;100.00;101384.84;5204541;28;20105;-60
2022/09/02 07:25:19;;;;;;;4.25;3.85;;;;;;;18.79;100.00;101389.00;5202158;28;20025;-61
2022/09/02 07:27:51;;;;;;;6.38;4.55;;;;;;;18.79;100.00;101388.19;5204290;28;20033;-61
2022/09/02 07:30:22;;;;;;;3.70;3.47;;;;;;;18.75;100.00;101389.91;5204679;28;20393;-61
2022/09/02 07:32:52;;;;;;;3.88;3.53;;;;;;;18.78;100.00;101379.16;5203469;28;20528;-64
2022/09/02 07:35:23;;;;;;;3.67;3.47;;;;;;;18.80;100.00;101379.69;5203794;28;20051;-62
2022/09/02 07:37:54;;;;;;;5.55;3.53;;;;;;;19.00;100.00;101377.72;5205323;28;20028;-61
2022/09/02 07:40:24;;;;;;;3.80;3.60;;;;;;;19.09;100.00;101363.03;5244437;28;20025;-62
2022/09/02 07:42:55;;;;;;;3.42;3.13;;;;;;;19.36;100.00;101372.41;5245557;28;20061;-61
2022/09/02 07:45:25;;;;;;;17.70;4.68;;;;;;;19.48;100.00;101368.06;5244665;28;20123;-63
2022/09/02 07:47:57;;;;;;;4.20;3.00;;;;;;;19.61;100.00;101366.50;5245447;28;20032;-64
2022/09/02 07:50:28;;;;;;;5.22;4.93;;;;;;;19.61;100.00;101365.69;5245120;28;20032;-65
2022/09/02 07:53:05;;;;;;;7.05;4.75;;;;;;;19.72;100.00;101356.94;5245244;28;20028;-65
2022/09/02 07:55:36;;;;;;;5.97;4.63;;;;;;;20.05;100.00;101363.09;5245099;28;20020;-65
2022/09/02 07:58:06;;;;;;;13.05;4.00;;;;;;;20.36;100.00;101360.50;5244970;28;20484;-65
2022/09/02 08:00:38;;;;;;;2.70;2.60;;;;;;;20.67;100.00;101360.63;5243502;28;20166;-64
2022/09/02 08:03:10;;;;;;;3.08;2.97;;;;;;;20.80;100.00;101339.69;5245439;28;20078;-63
2022/09/02 08:05:43;;;;;;;6.40;3.55;;;;;;;21.04;100.00;101350.38;5244899;28;20027;-65
2022/09/02 08:08:15;;;;;;;6.43;3.70;;;;;;;21.43;100.00;101355.09;5223875;28;20480;-64
2022/09/02 08:10:50;;;;;;;6.45;3.80;;;;;;;21.70;100.00;101354.06;5239294;28;20417;-64
2022/09/02 08:13:21;;;;;;;4.65;4.25;;;;;;;21.85;100.00;101348.94;5243450;28;20028;-64
2022/09/02 08:15:52;;;;;;;3.42;3.22;;;;;;;21.87;100.00;101340.38;5245112;28;20024;-65
2022/09/02 08:18:23;;;;;;;3.47;3.30;;;;;;;22.18;100.00;101349.34;5243607;28;20021;-60
2022/09/02 08:20:54;;;;;;;4.03;3.83;;;;;;;22.37;100.00;101350.97;5243837;28;20048;-63
2022/09/02 08:23:25;;;;;;;4.95;4.43;;;;;;;22.51;100.00;101348.88;5238956;28;20024;-62
2022/09/02 08:25:58;;;;;;;3.30;3.10;;;;;;;22.65;100.00;101354.19;5244908;28;20043;-62
2022/09/02 08:28:30;;;;;;;3.50;3.30;;;;;;;22.84;100.00;101351.94;5244052;28;20033;-60
2022/09/02 08:31:06;;;;;;;6.90;3.45;;;;;;;22.85;99.85;101326.81;5243890;28;20024;-61
2022/09/02 08:33:36;;;;;;;3.70;3.50;;;;;;;23.11;100.00;101347.97;5244262;28;20047;-61
2022/09/02 08:36:10;;;;;;;4.32;4.13;;;;;;;23.22;97.74;101347.31;5244965;28;20021;-62
2022/09/02 08:38:41;;;;;;;3.72;3.50;;;;;;;23.30;97.67;101348.41;5245533;28;20024;-61
2022/09/02 08:41:29;;;;;;;3.28;3.08;;;;;;;23.63;97.67;101353.34;5244954;28;20024;-61
2022/09/02 08:44:01;;;;;;;4.05;3.67;;;;;;;23.97;95.48;101353.13;5243706;28;20067;-62
2022/09/02 08:46:34;;;;;;;4.07;2.72;;;;;;;24.43;95.28;101348.59;5242069;28;20120;-59
2022/09/02 08:49:31;;;;;;;4.30;2.72;;;;;;;24.94;91.95;101346.50;5244627;28;20484;-61
2022/09/02 08:52:04;;;;;;;4.18;3.05;;;;;;;25.18;89.54;101332.75;5242556;28;20059;-60
2022/09/02 08:54:34;;;;;;;3.28;3.08;;;;;;;25.15;87.78;101333.44;5243998;28;20020;-62
2022/09/02 08:57:04;;;;;;;5.18;3.40;;;;;;;25.19;88.24;101331.59;5243995;28;20105;-61
2022/09/02 08:59:36;;;;;;;2.92;2.72;;;;;;;25.01;86.60;101339.28;5244685;28;20477;-62
2022/09/02 09:02:33;;;;;;;3.28;3.13;;;;;;;24.78;86.95;101340.81;5241117;28;20024;-61
2022/09/02 09:05:33;;;;;;;6.43;3.15;;;;;;;24.58;85.81;101337.72;5243666;28;20023;-62
2022/09/02 09:08:15;;;;;;;3.53;3.33;;;;;;;24.21;86.58;101336.75;5214803;28;20058;-62
2022/09/02 09:10:56;;;;;;;2.85;2.60;;;;;;;24.43;86.62;101334.81;5247026;28;20421;-61
2022/09/02 09:13:59;;;;;;;2.63;2.42;;;;;;;24.60;85.60;101340.16;5247441;28;20036;-61
2022/09/02 09:16:54;;;;;;;2.88;2.72;;;;;;;24.78;86.35;101336.09;5224368;28;20111;-61
2022/09/02 09:19:24;;;;;;;3.30;3.00;;;;;;;25.06;84.43;101332.75;5246670;28;20036;-62
2022/09/02 09:21:59;;;;;;;4.82;3.45;;;;;;;24.89;82.87;101319.88;5248073;28;20042;-61
2022/09/02 09:24:41;;;;;;;3.13;2.92;;;;;;;24.92;83.09;101324.72;5247479;28;20099;-62
2022/09/02 09:27:20;;;;;;;2.95;2.67;;;;;;;25.03;83.01;101317.66;5248209;28;20039;-61
2022/09/02 09:29:51;;;;;;;6.10;3.65;;;;;;;25.05;82.74;101317.31;5246715;28;20063;-62
2022/09/02 09:32:27;;;;;;;3.55;3.35;;;;;;;25.13;83.03;101327.44;5247417;28;20028;-60
2022/09/02 09:35:07;;;;;;;5.78;2.97;;;;;;;25.17;83.08;101309.03;5247404;28;20020;-61
2022/09/02 09:37:49;;;;;;;2.95;2.85;;;;;;;25.37;81.90;101319.19;5247114;28;20021;-62
2022/09/02 09:40:19;;;;;;;3.28;3.05;;;;;;;25.66;81.46;101317.38;5248037;28;20024;-62
2022/09/02 09:43:04;;;;;;;3.78;3.47;;;;;;;26.04;79.46;101314.19;5247443;28;20090;-62
2022/09/02 09:45:48;;;;;;;3.03;2.83;;;;;;;25.66;78.89;101317.38;5246257;28;20521;-61
2022/09/02 09:48:22;;;;;;;3.65;3.45;;;;;;;25.52;78.96;101320.44;5247613;28;20060;-61
2022/09/02 09:50:55;;;;;;;2.88;2.67;;;;;;;25.36;79.50;101311.25;5247651;28;20400;-62
2022/09/02 09:53:28;;;;;;;4.53;3.97;;;;;;;25.57;80.64;101306.41;5247474;28;20028;-63
2022/09/02 09:56:06;;;;;;;5.43;2.63;;;;;;;25.75;78.71;101302.25;5248338;28;20370;-62
2022/09/02 09:58:39;;;;;;;3.25;3.05;;;;;;;25.88;79.29;101297.50;5248121;28;20302;-64
2022/09/02 10:01:25;;;;;;;3.25;2.95;;;;;;;26.17;79.13;101299.97;5248029;28;20119;-62
2022/09/02 10:03:55;;;;;;;13.65;3.08;;;;;;;26.50;77.86;101296.19;5247203;28;20028;-60
2022/09/02 10:06:31;;;;;;;6.80;3.97;;;;;;;26.82;75.83;101297.06;5247776;28;20055;-64
2022/09/02 10:09:02;;;;;;;7.13;3.85;;;;;;;26.60;76.34;101292.88;5245871;28;20028;-63
2022/09/02 10:11:35;;;;;;;16.60;3.67;;;;;;;26.54;75.58;101291.56;5247859;28;20126;-64
2022/09/02 10:14:10;;;;;;;3.60;3.28;;;;;;;26.13;75.76;101282.44;5246529;28;20025;-62
2022/09/02 10:16:56;;;;;;;4.65;3.55;;;;;;;26.18;76.57;101292.47;5247852;28;20400;-64
2022/09/02 10:19:51;;;;;;;3.55;3.25;;;;;;;26.31;75.26;101290.47;5247624;28;20033;-63
2022/09/02 10:22:46;;;;;;;4.63;3.05;;;;;;;26.13;75.55;101293.53;5246506;28;20025;-62
2022/09/02 10:25:35;;;;;;;6.40;2.88;;;;;;;25.87;74.72;101293.13;5246590;28;20020;-63
2022/09/02 10:28:45;;;;;;;2.95;2.85;;;;;;;26.00;75.15;101289.16;5247246;28;20500;-63
2022/09/02 10:31:47;;;;;;;3.28;3.08;;;;;;;26.14;75.18;101281.28;5246935;28;20507;-62
2022/09/02 10:34:32;;;;;;;3.05;2.95;;;;;;;26.22;74.71;101285.88;5236875;28;20063;-63
2022/09/02 10:37:02;;;;;;;2.83;2.58;;;;;;;26.47;73.92;101274.75;5246826;28;20496;-62
2022/09/02 10:40:00;;;;;;;3.08;2.88;;;;;;;26.66;73.31;101272.09;5247305;28;20031;-64
2022/09/02 10:42:58;;;;;;;8.88;5.20;;;;;;;26.83;72.39;101271.75;5246576;28;20024;-62
2022/09/02 10:45:28;;;;;;;6.07;3.38;;;;;;;26.85;72.17;101265.88;5244485;28;20020;-62
2022/09/02 10:47:58;;;;;;;2.50;2.40;;;;;;;26.77;70.08;101270.41;5246691;28;20485;-62
2022/09/02 10:51:16;;;;;;;4.03;3.65;;;;;;;26.77;70.24;101256.56;5246692;28;20033;-63
2022/09/02 10:53:46;;;;;;;2.97;2.88;;;;;;;26.60;68.60;101256.88;5227344;28;20499;-65
2022/09/02 10:56:37;;;;;;;2.72;2.45;;;;;;;26.44;69.70;101244.97;5246477;28;20032;-63
2022/09/02 10:59:28;;;;;;;2.80;2.70;;;;;;;26.65;68.52;101228.91;5246725;28;20044;-62
2022/09/02 11:02:08;;;;;;;4.25;3.95;;;;;;;26.80;67.63;101236.44;5246534;28;20481;-63
2022/09/02 11:04:44;;;;;;;2.60;2.50;;;;;;;27.07;67.13;101233.97;5245723;28;20013;-63
2022/09/02 11:07:29;;;;;;;3.45;2.28;;;;;;;27.12;65.46;101225.38;5246533;28;20101;-63
2022/09/02 11:10:11;;;;;;;5.72;2.78;;;;;;;27.01;64.82;101224.31;5246299;28;20016;-63
2022/09/02 11:12:51;;;;;;;9.95;3.47;;;;;;;27.09;64.37;101220.56;5246715;28;20027;-63
2022/09/02 11:15:44;;;;;;;2.85;2.65;;;;;;;27.15;63.36;101213.56;5245377;28;20017;-61
2022/09/02 11:18:17;;;;;;;2.50;2.30;;;;;;;27.20;64.06;101216.06;5246017;28;20028;-65
2022/09/02 11:20:53;;;;;;;3.70;3.15;;;;;;;27.35;62.90;101212.47;5245442;28;20021;-63
2022/09/02 11:23:40;;;;;;;2.47;2.30;;;;;;;27.51;62.64;101202.13;5244900;28;20028;-62
2022/09/02 11:26:23;;;;;;;2.38;2.28;;;;;;;27.54;61.62;101209.72;5256667;22;20037;-81
2022/09/02 11:28:56;;;;;;;4.40;2.63;;;;;;;27.37;60.67;101176.06;5230836;28;20108;-81
2022/09/02 11:31:42;;;;;;;2.10;2.00;;;;;;;27.47;61.15;101186.56;5213219;28;20055;-80
2022/09/02 11:34:34;;;;;;;4.90;2.50;;;;;;;27.42;60.71;101184.91;5229367;28;20025;-81
2022/09/02 11:37:08;;;;;;;3.30;2.67;;;;;;;27.74;61.01;101204.22;5231978;28;20029;-81
2022/09/02 11:39:51;;;;;;;2.05;1.95;;;;;;;27.86;59.58;101188.25;5213103;28;20035;-81
2022/09/02 11:42:29;;;;;;;4.63;2.88;;;;;;;28.09;59.09;101193.03;5231257;28;20033;-82
2022/09/02 11:45:11;;;;;;;2.90;2.75;;;;;;;27.89;57.84;101192.25;5230044;28;20100;-82
2022/09/02 11:48:08;;;;;;;2.38;2.28;;;;;;;27.86;57.50;101187.44;5231131;28;20025;-81
2022/09/02 11:50:50;;;;;;;2.90;2.70;;;;;;;27.81;57.21;101180.19;5201604;28;20304;-81